Time;durP1;ratioP1;P1;durP2;ratioP2;P2;SDS_P1;SDS_P2;PMS_P1;PMS_P2;Temp;Humidity;BMP_temperature;BMP_pressure;BME280_temperature;BME280_humidity;BME280_pressure;Samples;Min_cycle;Max_cycle;Signal;HPM_P1;HPM_P2
2023/05/29 00:00:18;;;;;;;8.20;4.43;;;;;;;;;;4985102;28;20505;-76
2023/05/29 00:02:47;;;;;;;28.08;14.23;;;;;;;;;;4995046;28;20050;-76
2023/05/29 00:05:16;;;;;;;11.90;6.47;;;;;;;;;;5000652;28;20096;-75
2023/05/29 00:07:41;;;;;;;11.82;5.60;;;;;;;;;;5011781;28;20022;-76
2023/05/29 00:10:12;;;;;;;9.63;5.03;;;;;;;;;;4991059;28;20037;-76
2023/05/29 00:12:58;;;;;;;9.30;5.20;;;;;;;;;;4985083;28;20038;-76
2023/05/29 00:15:30;;;;;;;11.60;5.25;;;;;;;;;;5011891;28;20034;-78
2023/05/29 00:17:59;;;;;;;12.60;5.20;;;;;;;;;;4994950;28;20490;-77
2023/05/29 00:20:25;;;;;;;11.00;5.40;;;;;;;;;;5011888;28;20041;-75
2023/05/29 00:22:53;;;;;;;6.70;4.20;;;;;;;;;;4994735;28;20033;-77
2023/05/29 00:25:19;;;;;;;;;;;;;;;;;;4995008;28;20033;-76
2023/05/29 00:27:44;;;;;;;9.68;5.22;;;;;;;;;;4994506;28;19909;-78
2023/05/29 00:30:11;;;;;;;12.07;5.45;;;;;;;;;;4994356;28;20490;-76
2023/05/29 00:32:37;;;;;;;11.77;5.47;;;;;;;;;;4960229;28;20046;-77
2023/05/29 00:35:06;;;;;;;11.68;5.28;;;;;;;;;;4962910;28;20054;-78
2023/05/29 00:37:33;;;;;;;9.73;5.60;;;;;;;;;;4994179;28;20033;-78
2023/05/29 00:39:58;;;;;;;11.77;5.05;;;;;;;;;;4980945;28;20038;-77
2023/05/29 00:42:24;;;;;;;10.13;4.80;;;;;;;;;;4981247;28;20383;-78
2023/05/29 00:44:50;;;;;;;8.85;5.38;;;;;;;;;;4981745;28;20018;-76
2023/05/29 00:47:16;;;;;;;9.55;5.00;;;;;;;;;;4998051;28;20439;-76
2023/05/29 00:49:44;;;;;;;15.48;5.65;;;;;;;;;;4977144;28;20041;-77
2023/05/29 00:52:10;;;;;;;8.13;5.03;;;;;;;;;;4978543;28;20030;-76
2023/05/29 00:54:36;;;;;;;9.20;4.50;;;;;;;;;;4984300;28;20513;-77
2023/05/29 00:57:02;;;;;;;11.05;4.45;;;;;;;;;;4999125;28;20315;-77
2023/05/29 00:59:29;;;;;;;11.10;3.92;;;;;;;;;;5013334;28;20041;-76
2023/05/29 01:01:55;;;;;;;9.30;4.13;;;;;;;;;;4968947;28;20034;-77
2023/05/29 01:04:23;;;;;;;10.30;4.88;;;;;;;;;;5005779;28;20112;-77
2023/05/29 01:06:49;;;;;;;8.83;4.07;;;;;;;;;;4997452;28;20153;-76
2023/05/29 01:09:16;;;;;;;8.40;4.47;;;;;;;;;;4981468;28;20018;-76
2023/05/29 01:11:54;;;;;;;8.80;4.05;;;;;;;;;;4980728;28;20048;-77
2023/05/29 01:14:40;;;;;;;9.17;4.23;;;;;;;;;;4981978;28;20042;-77
2023/05/29 01:17:16;;;;;;;6.88;3.58;;;;;;;;;;4980975;28;20287;-76
2023/05/29 01:19:43;;;;;;;8.00;4.13;;;;;;;;;;4997503;28;20029;-74
2023/05/29 01:22:09;;;;;;;7.10;4.10;;;;;;;;;;4995269;28;20019;-77
2023/05/29 01:24:44;;;;;;;6.47;3.55;;;;;;;;;;4980917;28;20407;-76
2023/05/29 01:27:10;;;;;;;7.43;3.42;;;;;;;;;;4981851;28;20049;-75
2023/05/29 01:29:38;;;;;;;7.82;3.85;;;;;;;;;;4981642;28;20030;-75
2023/05/29 01:32:04;;;;;;;8.65;3.70;;;;;;;;;;4980894;28;20026;-75
2023/05/29 01:34:30;;;;;;;6.55;3.65;;;;;;;;;;4996992;28;20030;-77
2023/05/29 01:36:56;;;;;;;7.13;3.70;;;;;;;;;;4980712;28;20375;-77
2023/05/29 01:39:23;;;;;;;9.32;3.55;;;;;;;;;;4977710;28;20030;-77
2023/05/29 01:41:49;;;;;;;7.32;3.65;;;;;;;;;;4945003;28;20041;-76
2023/05/29 01:44:15;;;;;;;5.70;3.20;;;;;;;;;;4961328;28;20081;-77
2023/05/29 01:46:41;;;;;;;7.53;3.38;;;;;;;;;;4977378;28;20442;-77
2023/05/29 01:49:07;;;;;;;7.38;3.25;;;;;;;;;;4992970;28;20472;-78
2023/05/29 01:51:33;;;;;;;5.80;3.00;;;;;;;;;;4993156;28;20514;-77
2023/05/29 01:54:02;;;;;;;5.03;3.00;;;;;;;;;;4994365;28;20030;-77
2023/05/29 01:56:32;;;;;;;6.57;3.20;;;;;;;;;;4994070;28;20041;-77
2023/05/29 01:58:58;;;;;;;7.00;3.42;;;;;;;;;;4996252;28;20053;-77
2023/05/29 02:01:24;;;;;;;8.25;3.83;;;;;;;;;;5008087;28;20053;-77
2023/05/29 02:03:51;;;;;;;7.25;2.97;;;;;;;;;;4979982;28;20403;-77
2023/05/29 02:06:17;;;;;;;8.13;3.83;;;;;;;;;;4976991;28;20027;-77
2023/05/29 02:08:42;;;;;;;8.02;3.28;;;;;;;;;;4986170;28;20026;-77
2023/05/29 02:11:08;;;;;;;6.53;3.33;;;;;;;;;;4982895;28;20031;-77
2023/05/29 02:13:34;;;;;;;8.10;3.50;;;;;;;;;;4992911;28;20061;-76
2023/05/29 02:15:59;;;;;;;6.65;3.10;;;;;;;;;;4992724;28;20042;-77
2023/05/29 02:18:25;;;;;;;6.68;3.38;;;;;;;;;;4993925;28;20034;-78
2023/05/29 02:20:51;;;;;;;7.13;3.40;;;;;;;;;;4976314;28;20030;-77
2023/05/29 02:23:21;;;;;;;9.10;3.42;;;;;;;;;;4992592;28;20034;-77
2023/05/29 02:25:46;;;;;;;6.97;3.25;;;;;;;;;;4976596;28;20438;-76
2023/05/29 02:28:12;;;;;;;8.00;3.50;;;;;;;;;;5000341;28;20026;-77
2023/05/29 02:30:39;;;;;;;8.05;3.42;;;;;;;;;;4995792;28;20030;-78
2023/05/29 02:33:06;;;;;;;6.82;3.35;;;;;;;;;;5013258;28;20088;-78
2023/05/29 02:35:33;;;;;;;7.68;3.50;;;;;;;;;;4980046;28;20034;-78
2023/05/29 02:37:59;;;;;;;7.30;3.42;;;;;;;;;;5013167;28;20120;-77
2023/05/29 02:40:24;;;;;;;7.85;3.60;;;;;;;;;;4979496;28;20175;-78
2023/05/29 02:42:50;;;;;;;9.50;4.07;;;;;;;;;;4995680;28;20037;-78
2023/05/29 02:45:16;;;;;;;10.25;3.58;;;;;;;;;;5006443;28;20479;-78
2023/05/29 02:47:42;;;;;;;6.45;3.35;;;;;;;;;;4995489;28;20506;-77
2023/05/29 02:50:08;;;;;;;7.95;3.33;;;;;;;;;;4963257;28;20038;-77
2023/05/29 02:52:34;;;;;;;6.45;3.13;;;;;;;;;;4995387;28;20033;-76
2023/05/29 02:55:00;;;;;;;8.35;3.70;;;;;;;;;;5011920;28;20653;-75
2023/05/29 02:57:25;;;;;;;9.50;3.50;;;;;;;;;;4979101;28;20482;-78
2023/05/29 02:59:51;;;;;;;8.70;3.20;;;;;;;;;;5009367;28;20038;-78
2023/05/29 03:02:17;;;;;;;8.93;3.80;;;;;;;;;;4959097;28;20117;-75
2023/05/29 03:04:44;;;;;;;7.55;3.60;;;;;;;;;;4978204;28;20121;-76
2023/05/29 03:07:12;;;;;;;10.70;3.42;;;;;;;;;;4984135;28;20034;-76
2023/05/29 03:09:38;;;;;;;6.80;3.58;;;;;;;;;;5009961;28;20069;-77
2023/05/29 03:12:04;;;;;;;7.95;3.58;;;;;;;;;;4975939;28;20060;-76
2023/05/29 03:14:30;;;;;;;9.07;3.70;;;;;;;;;;4981928;28;20037;-76
2023/05/29 03:16:56;;;;;;;7.10;3.00;;;;;;;;;;4979464;28;20582;-77
2023/05/29 03:19:22;;;;;;;7.57;3.40;;;;;;;;;;4995042;28;20117;-76
2023/05/29 03:21:47;;;;;;;6.60;3.55;;;;;;;;;;4994834;28;20042;-77
2023/05/29 03:24:13;;;;;;;6.68;3.10;;;;;;;;;;4978948;28;20038;-78
2023/05/29 03:26:40;;;;;;;10.25;3.25;;;;;;;;;;4995133;28;20021;-77
2023/05/29 03:29:06;;;;;;;7.90;3.45;;;;;;;;;;4995056;28;20113;-77
2023/05/29 03:31:32;;;;;;;7.95;3.75;;;;;;;;;;4961726;28;20099;-76
2023/05/29 03:33:59;;;;;;;8.00;3.40;;;;;;;;;;4995061;28;20550;-76
2023/05/29 03:36:53;;;;;;;8.27;3.60;;;;;;;;;;4986230;28;20042;-76
2023/05/29 03:39:20;;;;;;;6.88;3.47;;;;;;;;;;4995294;28;20113;-77
2023/05/29 03:41:47;;;;;;;7.55;3.20;;;;;;;;;;4978811;28;20383;-77
2023/05/29 03:44:12;;;;;;;6.90;3.65;;;;;;;;;;4978919;28;20137;-78
2023/05/29 03:46:38;;;;;;;7.75;3.40;;;;;;;;;;4978643;28;20037;-76
2023/05/29 03:49:04;;;;;;;6.30;3.35;;;;;;;;;;4990003;28;20387;-75
2023/05/29 03:51:30;;;;;;;8.43;3.25;;;;;;;;;;4974264;28;20038;-76
2023/05/29 03:53:56;;;;;;;12.85;4.53;;;;;;;;;;5006407;28;20447;-77
2023/05/29 03:56:22;;;;;;;6.45;3.53;;;;;;;;;;4999823;28;20060;-76
2023/05/29 03:58:48;;;;;;;9.65;3.33;;;;;;;;;;5002975;28;20088;-75
2023/05/29 04:01:14;;;;;;;7.45;3.60;;;;;;;;;;4991243;28;20037;-75
2023/05/29 04:03:39;;;;;;;9.82;2.90;;;;;;;;;;4977367;28;20388;-76
2023/05/29 04:06:06;;;;;;;10.70;3.88;;;;;;;;;;4993118;28;20038;-76
2023/05/29 04:08:32;;;;;;;7.80;3.20;;;;;;;;;;4995797;28;20058;-75
2023/05/29 04:10:57;;;;;;;6.97;3.97;;;;;;;;;;4979797;28;20558;-76
2023/05/29 04:13:23;;;;;;;7.40;3.33;;;;;;;;;;4997189;28;20030;-76
2023/05/29 04:15:52;;;;;;;11.35;3.72;;;;;;;;;;5000229;28;20046;-78
2023/05/29 04:18:17;;;;;;;;;;;;;;;;;;4984538;28;20026;-79
2023/05/29 04:20:45;;;;;;;6.30;3.15;;;;;;;;;;5003699;28;19914;-77
2023/05/29 04:23:11;;;;;;;9.05;3.95;;;;;;;;;;5023061;28;20026;-76
2023/05/29 04:25:37;;;;;;;7.22;3.40;;;;;;;;;;5023169;28;20086;-77
2023/05/29 04:28:03;;;;;;;7.43;3.47;;;;;;;;;;5005515;28;20415;-77
2023/05/29 04:30:29;;;;;;;8.38;3.72;;;;;;;;;;5004009;28;20075;-77
2023/05/29 04:32:55;;;;;;;7.90;3.28;;;;;;;;;;4988544;28;20041;-76
2023/05/29 04:35:23;;;;;;;5.93;2.97;;;;;;;;;;4989693;28;20033;-77
2023/05/29 04:37:56;;;;;;;7.97;3.85;;;;;;;;;;4988480;28;20041;-77
2023/05/29 04:40:22;;;;;;;8.82;4.05;;;;;;;;;;4989487;28;20026;-77
2023/05/29 04:42:49;;;;;;;11.10;3.55;;;;;;;;;;4988833;28;20034;-78
2023/05/29 04:45:16;;;;;;;8.77;3.72;;;;;;;;;;4988546;28;20034;-77
2023/05/29 04:47:45;;;;;;;7.72;3.45;;;;;;;;;;4972461;28;20030;-76
2023/05/29 04:50:16;;;;;;;8.15;4.20;;;;;;;;;;5003909;28;20041;-78
2023/05/29 04:52:43;;;;;;;6.60;3.58;;;;;;;;;;4984317;28;20087;-78
2023/05/29 04:55:10;;;;;;;9.38;3.20;;;;;;;;;;4982690;28;20088;-75
2023/05/29 04:57:36;;;;;;;8.68;4.00;;;;;;;;;;4968330;28;20053;-76
2023/05/29 05:00:06;;;;;;;6.95;3.08;;;;;;;;;;4992491;28;20037;-76
2023/05/29 05:02:34;;;;;;;7.97;3.55;;;;;;;;;;5001148;28;20030;-75
2023/05/29 05:05:01;;;;;;;8.43;3.80;;;;;;;;;;4987611;28;20038;-75
2023/05/29 05:07:28;;;;;;;7.50;3.70;;;;;;;;;;4996957;28;20026;-77
2023/05/29 05:09:54;;;;;;;12.27;5.03;;;;;;;;;;5004558;28;20030;-76
2023/05/29 05:12:24;;;;;;;8.73;3.50;;;;;;;;;;5005209;28;20026;-79
2023/05/29 05:14:50;;;;;;;6.88;3.30;;;;;;;;;;5004823;28;20091;-75
2023/05/29 05:17:16;;;;;;;11.25;3.28;;;;;;;;;;5002828;28;20541;-78
2023/05/29 05:19:42;;;;;;;9.60;3.63;;;;;;;;;;4986228;28;20030;-76
2023/05/29 05:22:07;;;;;;;9.73;3.42;;;;;;;;;;5006140;28;20513;-78
2023/05/29 05:24:34;;;;;;;8.65;3.22;;;;;;;;;;4998370;28;20041;-76
2023/05/29 05:27:02;;;;;;;11.45;4.00;;;;;;;;;;4967095;28;20045;-78
2023/05/29 05:29:28;;;;;;;9.98;4.22;;;;;;;;;;4980721;28;20053;-78
2023/05/29 05:31:54;;;;;;;7.65;3.47;;;;;;;;;;4996805;28;20026;-76
2023/05/29 05:34:20;;;;;;;10.02;3.60;;;;;;;;;;4962902;28;20076;-77
2023/05/29 05:36:47;;;;;;;8.40;3.33;;;;;;;;;;4962680;28;20050;-76
2023/05/29 05:39:14;;;;;;;8.98;3.58;;;;;;;;;;4962281;28;20049;-76
2023/05/29 05:41:43;;;;;;;9.32;3.28;;;;;;;;;;4976814;28;20022;-77
2023/05/29 05:44:09;;;;;;;8.65;3.55;;;;;;;;;;4958060;28;20038;-76
2023/05/29 05:46:44;;;;;;;7.30;3.25;;;;;;;;;;4978088;28;20022;-76
2023/05/29 05:49:10;;;;;;;8.43;3.45;;;;;;;;;;4961635;28;20034;-76
2023/05/29 05:51:36;;;;;;;10.10;3.42;;;;;;;;;;4961793;28;20045;-76
2023/05/29 05:54:02;;;;;;;8.85;3.90;;;;;;;;;;4961513;28;20459;-75
2023/05/29 05:56:29;;;;;;;9.35;3.70;;;;;;;;;;4961971;28;20061;-76
2023/05/29 05:58:55;;;;;;;9.02;3.42;;;;;;;;;;4987521;23;20440;-83
2023/05/29 06:01:21;;;;;;;7.82;3.17;;;;;;;;;;4978472;28;20309;-80
2023/05/29 06:03:47;;;;;;;9.50;3.80;;;;;;;;;;4986571;28;20050;-83
2023/05/29 06:06:13;;;;;;;8.05;3.50;;;;;;;;;;4983828;28;20050;-83
2023/05/29 06:08:41;;;;;;;8.27;3.40;;;;;;;;;;4955341;28;20503;-83
2023/05/29 06:11:07;;;;;;;8.43;3.58;;;;;;;;;;4958894;28;20090;-83
2023/05/29 06:13:36;;;;;;;8.90;3.88;;;;;;;;;;4963281;28;20031;-84
2023/05/29 06:16:09;;;;;;;6.15;3.15;;;;;;;;;;4957952;28;20122;-84
2023/05/29 06:18:35;;;;;;;6.63;3.38;;;;;;;;;;4957702;28;20045;-84
2023/05/29 06:21:01;;;;;;;7.60;3.40;;;;;;;;;;4958087;28;20030;-83
2023/05/29 06:23:27;;;;;;;11.02;3.70;;;;;;;;;;4941587;28;20031;-83
2023/05/29 06:25:52;;;;;;;8.60;3.75;;;;;;;;;;4941442;28;20031;-82
2023/05/29 06:28:19;;;;;;;11.45;4.20;;;;;;;;;;4925884;28;20025;-83
2023/05/29 06:30:45;;;;;;;12.23;3.72;;;;;;;;;;4957626;28;20034;-83
2023/05/29 06:33:11;;;;;;;10.60;3.95;;;;;;;;;;4924114;28;20034;-83
2023/05/29 06:35:39;;;;;;;13.23;4.15;;;;;;;;;;4939777;29;20031;-83
2023/05/29 06:38:05;;;;;;;9.68;3.97;;;;;;;;;;4938181;29;20408;-83
2023/05/29 06:40:31;;;;;;;10.32;3.85;;;;;;;;;;4937982;29;20162;-84
2023/05/29 06:42:57;;;;;;;12.13;3.95;;;;;;;;;;4937915;29;20551;-83
2023/05/29 06:45:36;;;;;;;11.35;4.72;;;;;;;;;;4923922;29;20119;-83
2023/05/29 06:48:01;;;;;;;12.40;4.18;;;;;;;;;;4937937;29;20125;-83
2023/05/29 06:50:27;;;;;;;12.32;4.30;;;;;;;;;;4941724;28;20468;-83
2023/05/29 06:52:53;;;;;;;13.77;4.45;;;;;;;;;;4972607;28;20042;-82
2023/05/29 06:55:26;;;;;;;8.43;3.60;;;;;;;;;;4953722;29;20043;-83
2023/05/29 06:57:55;;;;;;;8.63;4.22;;;;;;;;;;4954583;28;20066;-84
2023/05/29 07:00:21;;;;;;;10.25;4.45;;;;;;;;;;4971349;28;20150;-83
2023/05/29 07:02:57;;;;;;;10.23;3.83;;;;;;;;;;4956750;28;20075;-83
2023/05/29 07:05:22;;;;;;;10.35;4.07;;;;;;;;;;4961806;28;20050;-83
2023/05/29 07:07:48;;;;;;;9.02;4.32;;;;;;;;;;4954517;29;20031;-83
2023/05/29 07:10:14;;;;;;;10.45;3.65;;;;;;;;;;4937716;29;20027;-84
2023/05/29 07:12:40;;;;;;;8.80;3.70;;;;;;;;;;4937377;29;20035;-82
2023/05/29 07:15:06;;;;;;;13.20;3.47;;;;;;;;;;4937282;29;20028;-83
2023/05/29 07:17:32;;;;;;;9.23;3.63;;;;;;;;;;4937674;29;20063;-83
2023/05/29 07:20:11;;;;;;;8.63;3.80;;;;;;;;;;4939128;29;20035;-83
2023/05/29 07:22:37;;;;;;;10.63;4.18;;;;;;;;;;4953268;28;20042;-83
2023/05/29 07:25:03;;;;;;;10.18;3.97;;;;;;;;;;4956698;28;20061;-83
2023/05/29 07:27:29;;;;;;;9.43;3.88;;;;;;;;;;4940715;28;20031;-83
2023/05/29 07:29:55;;;;;;;11.75;3.78;;;;;;;;;;4956699;28;20034;-83
2023/05/29 07:32:21;;;;;;;9.23;4.15;;;;;;;;;;4956940;28;20031;-83
2023/05/29 07:34:49;;;;;;;9.75;3.72;;;;;;;;;;4956814;28;20042;-82
2023/05/29 07:37:16;;;;;;;11.05;3.67;;;;;;;;;;4939915;28;20495;-83
2023/05/29 07:39:43;;;;;;;10.27;3.90;;;;;;;;;;4936843;29;20035;-84
2023/05/29 07:42:27;;;;;;;14.82;4.20;;;;;;;;;;4954467;29;20058;-85
2023/05/29 07:44:53;;;;;;;9.30;3.28;;;;;;;;;;4937468;29;20089;-84
2023/05/29 07:47:19;;;;;;;8.10;3.67;;;;;;;;;;4952928;28;20031;-81
2023/05/29 07:49:46;;;;;;;9.52;3.58;;;;;;;;;;4953623;29;20452;-83
2023/05/29 07:52:12;;;;;;;8.32;3.35;;;;;;;;;;4956642;29;20030;-84
2023/05/29 07:54:38;;;;;;;12.05;3.53;;;;;;;;;;4961447;28;20027;-83
2023/05/29 07:57:09;;;;;;;10.20;3.70;;;;;;;;;;4976052;28;20030;-83
2023/05/29 07:59:36;;;;;;;9.52;3.40;;;;;;;;;;4961012;28;20555;-81
2023/05/29 08:02:03;;;;;;;6.55;3.00;;;;;;;;;;4960525;28;20042;-81
2023/05/29 08:04:48;;;;;;;8.48;3.53;;;;;;;;;;4972136;28;20031;-83
2023/05/29 08:07:13;;;;;;;10.77;3.45;;;;;;;;;;4972531;28;20567;-82
2023/05/29 08:09:39;;;;;;;6.50;3.00;;;;;;;;;;4970737;28;20035;-82
2023/05/29 08:12:06;;;;;;;11.07;3.17;;;;;;;;;;4958648;29;20027;-84
2023/05/29 08:14:31;;;;;;;9.35;3.40;;;;;;;;;;4960800;29;20031;-83
2023/05/29 08:16:59;;;;;;;7.63;3.00;;;;;;;;;;4943786;29;20101;-82
2023/05/29 08:19:25;;;;;;;7.72;3.00;;;;;;;;;;4964305;29;20484;-83
2023/05/29 08:21:50;;;;;;;8.88;3.78;;;;;;;;;;4968616;29;20118;-82
2023/05/29 08:24:16;;;;;;;9.38;2.95;;;;;;;;;;4954261;29;20031;-81
2023/05/29 08:26:43;;;;;;;9.48;2.90;;;;;;;;;;4979140;28;20046;-82
2023/05/29 08:29:09;;;;;;;5.90;2.80;;;;;;;;;;4993075;28;20304;-83
2023/05/29 08:31:34;;;;;;;7.57;3.95;;;;;;;;;;4960396;28;20051;-81
2023/05/29 08:34:00;;;;;;;8.25;2.83;;;;;;;;;;4989194;28;20038;-83
2023/05/29 08:36:25;;;;;;;9.70;3.47;;;;;;;;;;4973394;28;20086;-82
2023/05/29 08:38:51;;;;;;;8.57;3.33;;;;;;;;;;4972651;28;20039;-81
2023/05/29 08:41:40;;;;;;;9.65;3.13;;;;;;;;;;4986809;28;20479;-83
2023/05/29 08:44:07;;;;;;;9.05;3.13;;;;;;;;;;4967127;28;20038;-83
2023/05/29 08:46:33;;;;;;;6.13;2.88;;;;;;;;;;4962635;28;20110;-83
2023/05/29 08:49:00;;;;;;;11.32;3.03;;;;;;;;;;4964164;28;20454;-81
2023/05/29 08:51:29;;;;;;;9.07;2.60;;;;;;;;;;4976413;28;20404;-82
2023/05/29 08:53:55;;;;;;;6.45;3.00;;;;;;;;;;4957123;28;20043;-82
2023/05/29 08:56:22;;;;;;;6.85;3.13;;;;;;;;;;4967747;28;20035;-82
2023/05/29 08:58:48;;;;;;;7.57;2.97;;;;;;;;;;4958206;28;20039;-82
2023/05/29 09:01:14;;;;;;;8.48;3.13;;;;;;;;;;4957278;29;20035;-81
2023/05/29 09:03:41;;;;;;;10.73;3.10;;;;;;;;;;4957883;29;20124;-82
2023/05/29 09:06:08;;;;;;;9.48;3.08;;;;;;;;;;4940437;29;20046;-82
2023/05/29 09:08:34;;;;;;;10.60;3.55;;;;;;;;;;4923934;29;20560;-82
2023/05/29 09:11:00;;;;;;;10.40;2.72;;;;;;;;;;4957281;29;20023;-82
2023/05/29 09:13:28;;;;;;;6.63;2.97;;;;;;;;;;4957448;29;20039;-82
2023/05/29 09:15:59;;;;;;;8.32;2.63;;;;;;;;;;4948093;28;20090;-82
2023/05/29 09:18:29;;;;;;;11.07;2.65;;;;;;;;;;4959129;28;20035;-82
2023/05/29 09:20:58;;;;;;;8.82;2.92;;;;;;;;;;4975912;28;20052;-83
2023/05/29 09:23:25;;;;;;;9.50;3.10;;;;;;;;;;4958963;28;20035;-82
2023/05/29 09:25:52;;;;;;;9.05;3.08;;;;;;;;;;4974692;28;20033;-83
2023/05/29 09:28:18;;;;;;;9.50;2.63;;;;;;;;;;4942557;28;20467;-82
2023/05/29 09:30:44;;;;;;;6.78;2.65;;;;;;;;;;4975543;28;20109;-83
2023/05/29 09:33:11;;;;;;;7.57;2.90;;;;;;;;;;4973043;28;20038;-82
2023/05/29 09:35:38;;;;;;;9.38;3.15;;;;;;;;;;4942558;28;20094;-82
2023/05/29 09:38:04;;;;;;;7.82;2.83;;;;;;;;;;4958111;28;20038;-81
2023/05/29 09:40:31;;;;;;;7.80;2.80;;;;;;;;;;4974366;28;20086;-81
2023/05/29 09:43:02;;;;;;;7.93;2.47;;;;;;;;;;4958086;28;20034;-80
2023/05/29 09:45:28;;;;;;;9.77;3.00;;;;;;;;;;4975409;28;20054;-80
2023/05/29 09:47:54;;;;;;;7.50;2.90;;;;;;;;;;4973997;28;20047;-80
2023/05/29 09:50:20;;;;;;;6.40;3.03;;;;;;;;;;4957420;28;20089;-82
2023/05/29 09:52:46;;;;;;;6.82;3.00;;;;;;;;;;4974755;28;20114;-81
2023/05/29 09:55:14;;;;;;;7.97;2.85;;;;;;;;;;4978179;28;20027;-81
2023/05/29 09:57:41;;;;;;;7.35;2.50;;;;;;;;;;4972596;28;20053;-81
2023/05/29 10:00:12;;;;;;;9.35;3.15;;;;;;;;;;4974650;28;20062;-80
2023/05/29 10:02:39;;;;;;;7.40;3.20;;;;;;;;;;4974760;28;20035;-82
2023/05/29 10:05:06;;;;;;;13.40;3.00;;;;;;;;;;4954396;29;20035;-82
2023/05/29 10:07:33;;;;;;;7.80;2.75;;;;;;;;;;4922778;29;20035;-82
2023/05/29 10:10:01;;;;;;;6.90;2.85;;;;;;;;;;4938367;28;20034;-81
2023/05/29 10:12:29;;;;;;;7.88;2.85;;;;;;;;;;4954187;29;20042;-82
2023/05/29 10:14:59;;;;;;;7.93;3.00;;;;;;;;;;4955489;29;20032;-83
2023/05/29 10:17:25;;;;;;;8.25;2.90;;;;;;;;;;4938323;29;20483;-81
2023/05/29 10:19:52;;;;;;;8.73;3.28;;;;;;;;;;4955636;28;20031;-82
2023/05/29 10:22:19;;;;;;;7.57;2.95;;;;;;;;;;4975437;28;20105;-82
2023/05/29 10:24:45;;;;;;;5.63;2.90;;;;;;;;;;4957337;28;20023;-81
2023/05/29 10:27:11;;;;;;;6.30;2.70;;;;;;;;;;4957519;28;20027;-82
2023/05/29 10:29:43;;;;;;;5.95;3.00;;;;;;;;;;4974906;28;20554;-82
2023/05/29 10:32:12;;;;;;;8.73;2.50;;;;;;;;;;4974702;28;20106;-81
2023/05/29 10:34:54;;;;;;;6.72;3.05;;;;;;;;;;4941512;28;20045;-82
2023/05/29 10:37:32;;;;;;;9.57;3.78;;;;;;;;;;4973784;28;20023;-82
2023/05/29 10:40:06;;;;;;;5.60;3.05;;;;;;;;;;4957724;28;20513;-82
2023/05/29 10:42:49;;;;;;;6.20;2.90;;;;;;;;;;4957314;28;20470;-82
2023/05/29 10:45:35;;;;;;;5.15;2.53;;;;;;;;;;4973332;28;20441;-82
2023/05/29 10:48:08;;;;;;;14.20;2.83;;;;;;;;;;4953592;28;20093;-82
2023/05/29 10:50:38;;;;;;;11.48;3.40;;;;;;;;;;4958399;28;20054;-80
2023/05/29 10:53:06;;;;;;;6.18;2.80;;;;;;;;;;4976889;28;20031;-81
2023/05/29 10:55:35;;;;;;;6.30;2.58;;;;;;;;;;4972555;28;20031;-81
2023/05/29 10:58:04;;;;;;;7.97;2.45;;;;;;;;;;4957896;28;20407;-81
2023/05/29 11:00:30;;;;;;;5.75;2.70;;;;;;;;;;4974123;28;20506;-82
2023/05/29 11:02:55;;;;;;;8.10;3.45;;;;;;;;;;4957601;28;20034;-83
2023/05/29 11:05:24;;;;;;;5.22;2.67;;;;;;;;;;4974853;28;20623;-83
2023/05/29 11:07:52;;;;;;;6.68;2.85;;;;;;;;;;4975650;28;20030;-82
2023/05/29 11:10:38;;;;;;;6.15;2.70;;;;;;;;;;4973220;28;20019;-82
2023/05/29 11:13:05;;;;;;;6.45;2.75;;;;;;;;;;4945000;29;20031;-82
2023/05/29 11:15:31;;;;;;;10.07;3.05;;;;;;;;;;4932927;29;20027;-81
2023/05/29 11:18:05;;;;;;;6.50;2.75;;;;;;;;;;4969033;29;20140;-81
2023/05/29 11:20:33;;;;;;;6.63;2.47;;;;;;;;;;4956148;29;20035;-82
2023/05/29 11:22:59;;;;;;;7.00;2.38;;;;;;;;;;4973796;28;20035;-83
2023/05/29 11:25:25;;;;;;;7.13;2.65;;;;;;;;;;4982940;28;20053;-82
2023/05/29 11:27:53;;;;;;;7.15;2.95;;;;;;;;;;4996823;28;20034;-81
2023/05/29 11:30:19;;;;;;;9.65;2.80;;;;;;;;;;4978618;28;20053;-82
2023/05/29 11:32:46;;;;;;;8.27;2.88;;;;;;;;;;4987616;28;20038;-83
2023/05/29 11:35:13;;;;;;;8.15;3.03;;;;;;;;;;4965858;28;20038;-81
2023/05/29 11:37:39;;;;;;;6.82;2.85;;;;;;;;;;4961688;28;20151;-82
2023/05/29 11:40:06;;;;;;;6.10;2.80;;;;;;;;;;4976188;28;20027;-83
2023/05/29 11:42:31;;;;;;;6.28;2.58;;;;;;;;;;4940337;28;20034;-81
2023/05/29 11:45:09;;;;;;;6.10;3.00;;;;;;;;;;4974096;28;20030;-82
2023/05/29 11:47:50;;;;;;;5.72;2.70;;;;;;;;;;4974032;28;20114;-83
2023/05/29 11:50:22;;;;;;;6.05;2.67;;;;;;;;;;4977142;28;20045;-81
2023/05/29 11:52:48;;;;;;;6.55;3.42;;;;;;;;;;4975170;28;20555;-83
2023/05/29 11:55:14;;;;;;;8.13;2.67;;;;;;;;;;4980331;28;20027;-81
2023/05/29 11:57:39;;;;;;;6.28;2.60;;;;;;;;;;4980071;28;20039;-81
2023/05/29 12:00:07;;;;;;;7.10;2.75;;;;;;;;;;4980130;28;20046;-82
2023/05/29 12:02:33;;;;;;;5.57;2.78;;;;;;;;;;4967275;28;20070;-82
2023/05/29 12:05:00;;;;;;;7.55;3.15;;;;;;;;;;4976449;28;20467;-82
2023/05/29 12:07:26;;;;;;;6.85;3.00;;;;;;;;;;4978613;28;20027;-82
2023/05/29 12:09:53;;;;;;;5.55;3.13;;;;;;;;;;4992356;28;20058;-81
2023/05/29 12:12:19;;;;;;;9.70;3.07;;;;;;;;;;4964575;28;20557;-82
2023/05/29 12:14:49;;;;;;;6.32;2.92;;;;;;;;;;4958463;28;20274;-82
2023/05/29 12:17:15;;;;;;;8.63;3.20;;;;;;;;;;4953891;29;20031;-82
2023/05/29 12:19:40;;;;;;;6.68;2.40;;;;;;;;;;4953967;29;20365;-81
2023/05/29 12:22:06;;;;;;;8.45;2.95;;;;;;;;;;4952967;29;20075;-81
2023/05/29 12:24:32;;;;;;;6.22;2.80;;;;;;;;;;4954702;29;20091;-82
2023/05/29 12:26:57;;;;;;;5.88;2.78;;;;;;;;;;4953842;29;20557;-81
2023/05/29 12:29:30;;;;;;;4.88;2.45;;;;;;;;;;4938117;28;20439;-82
2023/05/29 12:31:58;;;;;;;5.75;2.50;;;;;;;;;;4972153;28;20029;-83
2023/05/29 12:34:24;;;;;;;6.28;2.70;;;;;;;;;;4974848;28;20034;-82
2023/05/29 12:36:50;;;;;;;6.57;2.63;;;;;;;;;;4959901;28;20034;-80
2023/05/29 12:39:15;;;;;;;5.32;2.45;;;;;;;;;;4976801;28;20133;-80
2023/05/29 12:41:41;;;;;;;8.63;2.95;;;;;;;;;;4959419;28;20034;-80
2023/05/29 12:44:07;;;;;;;7.18;3.10;;;;;;;;;;4975418;28;20482;-81
2023/05/29 12:46:38;;;;;;;4.80;2.67;;;;;;;;;;4958004;28;20038;-81
2023/05/29 12:49:13;;;;;;;5.30;2.90;;;;;;;;;;4976173;28;20031;-81
2023/05/29 12:51:43;;;;;;;4.80;2.53;;;;;;;;;;4976197;28;20027;-81
2023/05/29 12:54:13;;;;;;;8.05;3.17;;;;;;;;;;4955646;29;20031;-83
2023/05/29 12:56:40;;;;;;;7.80;3.28;;;;;;;;;;4969367;28;20034;-81
2023/05/29 12:59:07;;;;;;;6.10;3.20;;;;;;;;;;4978670;28;20031;-80
2023/05/29 13:01:32;;;;;;;7.65;2.80;;;;;;;;;;4978124;28;20039;-82
2023/05/29 13:03:58;;;;;;;6.30;2.63;;;;;;;;;;4977340;28;20030;-82
2023/05/29 13:06:23;;;;;;;5.78;2.47;;;;;;;;;;4977308;28;20110;-81
2023/05/29 13:08:49;;;;;;;5.15;2.50;;;;;;;;;;4977340;28;20031;-81
2023/05/29 13:11:14;;;;;;;6.78;2.55;;;;;;;;;;4977542;28;20027;-82
2023/05/29 13:13:40;;;;;;;8.18;2.85;;;;;;;;;;4978219;28;20477;-81
2023/05/29 13:16:06;;;;;;;6.05;2.90;;;;;;;;;;4978962;28;20046;-80
2023/05/29 13:18:31;;;;;;;8.07;3.10;;;;;;;;;;4959012;28;20126;-81
2023/05/29 13:20:57;;;;;;;7.18;2.88;;;;;;;;;;4942404;28;20035;-81
2023/05/29 13:23:22;;;;;;;5.93;2.80;;;;;;;;;;4976078;28;20038;-83
2023/05/29 13:25:49;;;;;;;6.05;3.03;;;;;;;;;;4943243;28;20039;-82
2023/05/29 13:28:15;;;;;;;7.28;3.03;;;;;;;;;;4976344;28;20030;-82
2023/05/29 13:30:41;;;;;;;7.28;3.13;;;;;;;;;;4958648;28;20022;-81
2023/05/29 13:33:08;;;;;;;8.55;2.60;;;;;;;;;;4974394;28;20031;-82
2023/05/29 13:35:33;;;;;;;7.30;3.00;;;;;;;;;;4975252;28;20519;-81
2023/05/29 13:37:59;;;;;;;5.65;2.60;;;;;;;;;;4969447;28;20050;-80
2023/05/29 13:40:24;;;;;;;9.38;3.00;;;;;;;;;;4975084;28;20023;-81
2023/05/29 13:42:50;;;;;;;5.80;2.90;;;;;;;;;;4975670;28;20030;-83
2023/05/29 13:45:15;;;;;;;9.93;2.75;;;;;;;;;;4975347;28;20022;-83
2023/05/29 13:47:45;;;;;;;5.57;2.70;;;;;;;;;;4976420;28;20492;-82
2023/05/29 13:50:10;;;;;;;6.80;2.72;;;;;;;;;;4977262;28;20101;-81
2023/05/29 13:52:36;;;;;;;4.93;2.83;;;;;;;;;;4978576;28;20023;-81
2023/05/29 13:55:08;;;;;;;8.60;2.75;;;;;;;;;;4943746;28;20043;-82
2023/05/29 13:57:33;;;;;;;6.97;2.88;;;;;;;;;;4944342;28;20062;-80
2023/05/29 13:59:59;;;;;;;7.10;2.90;;;;;;;;;;4977697;28;20480;-82
2023/05/29 14:02:25;;;;;;;7.63;2.80;;;;;;;;;;4980125;28;20495;-81
2023/05/29 14:04:51;;;;;;;8.15;3.15;;;;;;;;;;4965098;28;20023;-81
2023/05/29 14:07:16;;;;;;;10.32;2.80;;;;;;;;;;4984588;28;20057;-82
2023/05/29 14:09:42;;;;;;;8.90;3.00;;;;;;;;;;4955174;28;20039;-82
2023/05/29 14:12:08;;;;;;;6.82;2.83;;;;;;;;;;4996743;28;20078;-81
2023/05/29 14:14:34;;;;;;;6.13;2.55;;;;;;;;;;4997465;28;20035;-81
2023/05/29 14:17:00;;;;;;;5.05;2.42;;;;;;;;;;4999104;28;20094;-81
2023/05/29 14:19:25;;;;;;;4.93;2.70;;;;;;;;;;4981317;28;20041;-82
2023/05/29 14:21:51;;;;;;;6.10;2.65;;;;;;;;;;4980231;28;20025;-80
2023/05/29 14:24:17;;;;;;;5.95;2.60;;;;;;;;;;4988072;28;20030;-81
2023/05/29 14:26:45;;;;;;;7.40;2.60;;;;;;;;;;4962557;28;20039;-82
2023/05/29 14:29:12;;;;;;;6.45;3.03;;;;;;;;;;4961726;28;20462;-82
2023/05/29 14:31:37;;;;;;;4.80;2.70;;;;;;;;;;4958686;28;20041;-82
2023/05/29 14:34:02;;;;;;;7.70;2.97;;;;;;;;;;4958372;28;20400;-81
2023/05/29 14:36:28;;;;;;;8.80;2.88;;;;;;;;;;4957858;28;20034;-81
2023/05/29 14:38:56;;;;;;;4.80;2.47;;;;;;;;;;4959732;28;20031;-83
2023/05/29 14:41:22;;;;;;;5.53;2.75;;;;;;;;;;4973936;28;20174;-81